MMVR/VER METAR and TAF weather

Enter ICAO airport designator
Station Type Date Time Source
MMVR METAR 2019/05/25 14:43 UTC NOAA

MMVR 251443Z 03003KT 5SM FEW015 30/23 A2996 RMK SLP127 52016 922 8/500 HZY


Station Type Date Time Source
MMVR Decoded METAR 2019/05/25 14:43 UTC NOAA

Veracruz / Las Bajadas / General Heriberto Jara, Mexico (MMVR) 19-09N 096-11W
May 25, 2019 - 10:43 AM EDT / 2019.05.25 1443 UTC
Wind: from the NNE (030 degrees) at 3 MPH (3 KT):0
Visibility: 5 mile(s):0
Sky conditions: mostly clear
Temperature: 86 F (30 C)
Heat index: 93.4 F (34.1 C):1
Dew Point: 73 F (23 C)
Relative Humidity: 66%
Pressure (altimeter): 29.96 in. Hg (1014 hPa)
Pressure tendency: 0.05 inches (1.6 hPa) higher than three hours ago
ob: MMVR 251443Z 03003KT 5SM FEW015 30/23 A2996 RMK SLP127 52016 922 8/500 HZY
cycle: 14

Station Type Date Time Source
MMVR TAF 2019/05/25 06:59 UTC NOAA

TAF MMVR 250459Z 2506/2606 03005KT 6SM HZ SCT012 TX33/2519Z TN27/2512Z
TEMPO 2510/2514 3SM BR BKN010
FM251600 08010KT 6SM HZ SCT015
FM260300 04005KT 5SM HZ SCT012

Example: see airport list